sensor_id;sensor_type;location;lat;lon;timestamp;temperature;humidity
17307;DHT22;8771;48.048;7.682;2022-09-21T00:04:08;13.00;63.60
17307;DHT22;8771;48.048;7.682;2022-09-21T00:09:10;13.00;63.70
17307;DHT22;8771;48.048;7.682;2022-09-21T00:14:13;12.90;63.80
17307;DHT22;8771;48.048;7.682;2022-09-21T00:19:17;12.80;63.90
17307;DHT22;8771;48.048;7.682;2022-09-21T00:24:19;12.80;63.90
17307;DHT22;8771;48.048;7.682;2022-09-21T00:29:21;12.70;64.00
17307;DHT22;8771;48.048;7.682;2022-09-21T00:34:24;12.60;64.00
17307;DHT22;8771;48.048;7.682;2022-09-21T00:39:27;12.50;64.10
17307;DHT22;8771;48.048;7.682;2022-09-21T00:44:31;12.40;64.10
17307;DHT22;8771;48.048;7.682;2022-09-21T00:49:35;12.30;64.30
17307;DHT22;8771;48.048;7.682;2022-09-21T00:54:43;12.20;64.30
17307;DHT22;8771;48.048;7.682;2022-09-21T00:59:47;12.10;64.50
17307;DHT22;8771;48.048;7.682;2022-09-21T01:04:53;12.00;64.50
17307;DHT22;8771;48.048;7.682;2022-09-21T01:09:58;11.90;64.50
17307;DHT22;8771;48.048;7.682;2022-09-21T01:15:15;11.90;64.60
17307;DHT22;8771;48.048;7.682;2022-09-21T01:26:01;11.70;64.60
17307;DHT22;8771;48.048;7.682;2022-09-21T01:31:13;11.70;64.70
17307;DHT22;8771;48.048;7.682;2022-09-21T01:36:21;11.60;64.80
17307;DHT22;8771;48.048;7.682;2022-09-21T01:41:26;11.50;64.80
17307;DHT22;8771;48.048;7.682;2022-09-21T01:46:31;11.40;64.80
17307;DHT22;8771;48.048;7.682;2022-09-21T01:51:34;11.40;64.90
17307;DHT22;8771;48.048;7.682;2022-09-21T01:56:40;11.30;64.90
17307;DHT22;8771;48.048;7.682;2022-09-21T02:01:50;11.30;64.90
17307;DHT22;8771;48.048;7.682;2022-09-21T02:06:54;11.20;65.00
17307;DHT22;8771;48.048;7.682;2022-09-21T02:11:56;11.10;65.00
17307;DHT22;8771;48.048;7.682;2022-09-21T02:17:05;11.10;65.10
17307;DHT22;8771;48.048;7.682;2022-09-21T02:22:18;11.00;65.10
17307;DHT22;8771;48.048;7.682;2022-09-21T02:27:30;11.00;65.10
17307;DHT22;8771;48.048;7.682;2022-09-21T02:32:41;10.90;65.00
17307;DHT22;8771;48.048;7.682;2022-09-21T02:37:52;10.90;65.00
17307;DHT22;8771;48.048;7.682;2022-09-21T02:42:59;10.90;65.00
17307;DHT22;8771;48.048;7.682;2022-09-21T02:48:07;10.90;64.90
17307;DHT22;8771;48.048;7.682;2022-09-21T02:53:10;10.80;65.00
17307;DHT22;8771;48.048;7.682;2022-09-21T02:58:14;10.70;65.10
17307;DHT22;8771;48.048;7.682;2022-09-21T03:03:20;10.70;65.20
17307;DHT22;8771;48.048;7.682;2022-09-21T03:08:23;10.70;65.10
17307;DHT22;8771;48.048;7.682;2022-09-21T03:13:25;10.60;65.10
17307;DHT22;8771;48.048;7.682;2022-09-21T03:18:28;10.60;65.10
17307;DHT22;8771;48.048;7.682;2022-09-21T03:23:30;10.50;65.10
17307;DHT22;8771;48.048;7.682;2022-09-21T03:28:33;10.50;65.10
17307;DHT22;8771;48.048;7.682;2022-09-21T03:33:36;10.40;65.20
17307;DHT22;8771;48.048;7.682;2022-09-21T03:38:38;10.40;65.20
17307;DHT22;8771;48.048;7.682;2022-09-21T03:43:41;10.40;65.30
17307;DHT22;8771;48.048;7.682;2022-09-21T03:48:46;10.40;65.30
17307;DHT22;8771;48.048;7.682;2022-09-21T03:53:48;10.30;65.40
17307;DHT22;8771;48.048;7.682;2022-09-21T03:58:50;10.30;65.40
17307;DHT22;8771;48.048;7.682;2022-09-21T04:03:54;10.20;65.40
17307;DHT22;8771;48.048;7.682;2022-09-21T04:08:56;10.10;65.40
17307;DHT22;8771;48.048;7.682;2022-09-21T04:13:59;10.10;65.50
17307;DHT22;8771;48.048;7.682;2022-09-21T04:19:04;10.00;65.70
17307;DHT22;8771;48.048;7.682;2022-09-21T04:24:06;9.90;65.80
17307;DHT22;8771;48.048;7.682;2022-09-21T04:29:08;9.80;65.70
17307;DHT22;8771;48.048;7.682;2022-09-21T04:34:13;9.80;65.70
17307;DHT22;8771;48.048;7.682;2022-09-21T04:39:15;9.70;65.70
17307;DHT22;8771;48.048;7.682;2022-09-21T04:44:19;9.70;65.80
17307;DHT22;8771;48.048;7.682;2022-09-21T04:49:22;9.60;65.70
17307;DHT22;8771;48.048;7.682;2022-09-21T04:54:24;9.60;65.80
17307;DHT22;8771;48.048;7.682;2022-09-21T04:59:27;9.60;65.90
17307;DHT22;8771;48.048;7.682;2022-09-21T05:04:30;9.50;65.90
17307;DHT22;8771;48.048;7.682;2022-09-21T05:09:32;9.40;65.90
17307;DHT22;8771;48.048;7.682;2022-09-21T05:14:52;9.40;65.90
17307;DHT22;8771;48.048;7.682;2022-09-21T05:19:57;9.30;65.80
17307;DHT22;8771;48.048;7.682;2022-09-21T05:24:59;9.30;65.90
17307;DHT22;8771;48.048;7.682;2022-09-21T05:30:02;9.30;65.90
17307;DHT22;8771;48.048;7.682;2022-09-21T05:35:12;9.30;65.90
17307;DHT22;8771;48.048;7.682;2022-09-21T05:40:17;9.20;65.90
17307;DHT22;8771;48.048;7.682;2022-09-21T05:45:20;9.20;65.90
17307;DHT22;8771;48.048;7.682;2022-09-21T05:50:39;9.20;66.00
17307;DHT22;8771;48.048;7.682;2022-09-21T05:55:50;9.20;66.10
17307;DHT22;8771;48.048;7.682;2022-09-21T06:01:07;9.20;65.30
17307;DHT22;8771;48.048;7.682;2022-09-21T06:06:16;9.20;65.90
17307;DHT22;8771;48.048;7.682;2022-09-21T06:11:19;9.20;65.90
17307;DHT22;8771;48.048;7.682;2022-09-21T06:16:22;9.30;65.90
17307;DHT22;8771;48.048;7.682;2022-09-21T06:21:25;9.30;65.80
17307;DHT22;8771;48.048;7.682;2022-09-21T06:26:28;9.40;65.80
17307;DHT22;8771;48.048;7.682;2022-09-21T06:31:30;9.60;65.70
17307;DHT22;8771;48.048;7.682;2022-09-21T06:36:34;9.80;65.50
17307;DHT22;8771;48.048;7.682;2022-09-21T06:41:36;10.00;65.30
17307;DHT22;8771;48.048;7.682;2022-09-21T06:46:38;10.30;65.10
17307;DHT22;8771;48.048;7.682;2022-09-21T06:51:42;10.60;64.80
17307;DHT22;8771;48.048;7.682;2022-09-21T06:56:44;10.90;64.50
17307;DHT22;8771;48.048;7.682;2022-09-21T07:01:47;11.20;64.20
17307;DHT22;8771;48.048;7.682;2022-09-21T07:06:51;11.50;64.00
17307;DHT22;8771;48.048;7.682;2022-09-21T07:11:53;11.80;64.00
17307;DHT22;8771;48.048;7.682;2022-09-21T07:16:55;11.90;63.80
17307;DHT22;8771;48.048;7.682;2022-09-21T07:21:59;12.10;64.00
17307;DHT22;8771;48.048;7.682;2022-09-21T07:27:01;12.20;64.00
17307;DHT22;8771;48.048;7.682;2022-09-21T07:32:04;12.30;63.90
17307;DHT22;8771;48.048;7.682;2022-09-21T07:37:08;12.40;64.00
17307;DHT22;8771;48.048;7.682;2022-09-21T07:42:10;12.50;64.00
17307;DHT22;8771;48.048;7.682;2022-09-21T07:47:12;12.50;64.00
17307;DHT22;8771;48.048;7.682;2022-09-21T07:52:16;12.60;64.10
17307;DHT22;8771;48.048;7.682;2022-09-21T07:57:19;12.70;64.10
17307;DHT22;8771;48.048;7.682;2022-09-21T08:02:38;12.90;64.00
17307;DHT22;8771;48.048;7.682;2022-09-21T08:07:41;13.20;63.80
17307;DHT22;8771;48.048;7.682;2022-09-21T08:12:44;13.40;63.60
17307;DHT22;8771;48.048;7.682;2022-09-21T08:17:47;13.70;63.50
17307;DHT22;8771;48.048;7.682;2022-09-21T08:22:54;14.00;63.20
17307;DHT22;8771;48.048;7.682;2022-09-21T08:27:57;14.30;62.90
17307;DHT22;8771;48.048;7.682;2022-09-21T08:33:00;14.70;62.70
17307;DHT22;8771;48.048;7.682;2022-09-21T08:38:05;14.90;62.50
17307;DHT22;8771;48.048;7.682;2022-09-21T08:43:09;15.00;62.40
17307;DHT22;8771;48.048;7.682;2022-09-21T08:48:18;15.10;62.50
17307;DHT22;8771;48.048;7.682;2022-09-21T08:53:25;15.20;62.50
17307;DHT22;8771;48.048;7.682;2022-09-21T08:58:32;15.40;62.40
17307;DHT22;8771;48.048;7.682;2022-09-21T09:03:50;15.50;62.30
17307;DHT22;8771;48.048;7.682;2022-09-21T09:14:47;15.70;62.20
17307;DHT22;8771;48.048;7.682;2022-09-21T09:19:55;15.90;62.00
17307;DHT22;8771;48.048;7.682;2022-09-21T09:25:03;16.20;61.90
17307;DHT22;8771;48.048;7.682;2022-09-21T09:30:14;16.30;61.70
17307;DHT22;8771;48.048;7.682;2022-09-21T09:35:24;16.40;61.70
17307;DHT22;8771;48.048;7.682;2022-09-21T09:40:47;16.40;61.70
17307;DHT22;8771;48.048;7.682;2022-09-21T09:46:02;16.60;61.60
17307;DHT22;8771;48.048;7.682;2022-09-21T09:51:09;16.90;61.30
17307;DHT22;8771;48.048;7.682;2022-09-21T09:56:13;17.10;61.00
17307;DHT22;8771;48.048;7.682;2022-09-21T10:01:35;17.20;61.00
17307;DHT22;8771;48.048;7.682;2022-09-21T10:06:38;17.30;61.00
17307;DHT22;8771;48.048;7.682;2022-09-21T10:11:41;17.40;60.90
17307;DHT22;8771;48.048;7.682;2022-09-21T10:16:43;17.50;60.80
17307;DHT22;8771;48.048;7.682;2022-09-21T10:21:46;17.60;60.80
17307;DHT22;8771;48.048;7.682;2022-09-21T10:26:51;17.70;60.60
17307;DHT22;8771;48.048;7.682;2022-09-21T10:31:55;17.80;60.50
17307;DHT22;8771;48.048;7.682;2022-09-21T10:36:59;18.00;60.50
17307;DHT22;8771;48.048;7.682;2022-09-21T10:42:06;18.10;60.30
17307;DHT22;8771;48.048;7.682;2022-09-21T10:47:18;18.20;60.20
17307;DHT22;8771;48.048;7.682;2022-09-21T10:52:23;18.30;60.20
17307;DHT22;8771;48.048;7.682;2022-09-21T10:57:28;18.30;60.00
17307;DHT22;8771;48.048;7.682;2022-09-21T11:02:36;18.40;60.00
17307;DHT22;8771;48.048;7.682;2022-09-21T11:07:44;18.60;59.90
17307;DHT22;8771;48.048;7.682;2022-09-21T11:13:04;18.70;59.80
17307;DHT22;8771;48.048;7.682;2022-09-21T11:18:17;18.70;59.80
17307;DHT22;8771;48.048;7.682;2022-09-21T11:23:38;18.90;59.70
17307;DHT22;8771;48.048;7.682;2022-09-21T11:28:48;19.10;59.40
17307;DHT22;8771;48.048;7.682;2022-09-21T11:34:10;19.20;59.30
17307;DHT22;8771;48.048;7.682;2022-09-21T11:39:24;19.40;59.20
17307;DHT22;8771;48.048;7.682;2022-09-21T11:44:43;19.60;59.10
17307;DHT22;8771;48.048;7.682;2022-09-21T11:50:05;19.80;58.90
17307;DHT22;8771;48.048;7.682;2022-09-21T11:55:31;19.90;58.80
17307;DHT22;8771;48.048;7.682;2022-09-21T12:00:46;20.00;58.70
17307;DHT22;8771;48.048;7.682;2022-09-21T12:06:04;20.20;58.50
17307;DHT22;8771;48.048;7.682;2022-09-21T12:11:13;20.40;58.50
17307;DHT22;8771;48.048;7.682;2022-09-21T12:16:23;20.40;58.50
17307;DHT22;8771;48.048;7.682;2022-09-21T12:21:30;20.50;58.60
17307;DHT22;8771;48.048;7.682;2022-09-21T12:26:37;20.50;58.40
17307;DHT22;8771;48.048;7.682;2022-09-21T12:31:46;20.40;58.60
17307;DHT22;8771;48.048;7.682;2022-09-21T12:36:59;20.30;58.70
17307;DHT22;8771;48.048;7.682;2022-09-21T12:48:10;20.20;58.70
17307;DHT22;8771;48.048;7.682;2022-09-21T12:53:17;20.20;58.60
17307;DHT22;8771;48.048;7.682;2022-09-21T12:58:36;20.30;58.50
17307;DHT22;8771;48.048;7.682;2022-09-21T13:03:48;20.30;58.50
17307;DHT22;8771;48.048;7.682;2022-09-21T13:08:55;20.30;58.50
17307;DHT22;8771;48.048;7.682;2022-09-21T13:14:00;20.20;58.40
17307;DHT22;8771;48.048;7.682;2022-09-21T13:19:17;20.20;58.30
17307;DHT22;8771;48.048;7.682;2022-09-21T13:24:25;20.20;58.30
17307;DHT22;8771;48.048;7.682;2022-09-21T13:29:30;20.20;58.20
17307;DHT22;8771;48.048;7.682;2022-09-21T13:34:35;20.20;58.20
17307;DHT22;8771;48.048;7.682;2022-09-21T13:39:42;20.20;58.10
17307;DHT22;8771;48.048;7.682;2022-09-21T13:44:45;20.20;58.20
17307;DHT22;8771;48.048;7.682;2022-09-21T13:55:39;20.30;58.00
17307;DHT22;8771;48.048;7.682;2022-09-21T14:05:51;20.40;57.90
17307;DHT22;8771;48.048;7.682;2022-09-21T14:10:58;20.40;57.90
17307;DHT22;8771;48.048;7.682;2022-09-21T14:22:32;20.50;57.80
17307;DHT22;8771;48.048;7.682;2022-09-21T14:27:42;20.50;57.80
17307;DHT22;8771;48.048;7.682;2022-09-21T14:32:47;20.50;57.70
17307;DHT22;8771;48.048;7.682;2022-09-21T14:37:56;20.70;57.60
17307;DHT22;8771;48.048;7.682;2022-09-21T14:43:06;20.70;57.50
17307;DHT22;8771;48.048;7.682;2022-09-21T14:48:14;20.70;57.60
17307;DHT22;8771;48.048;7.682;2022-09-21T14:53:31;20.60;57.70
17307;DHT22;8771;48.048;7.682;2022-09-21T14:58:49;20.60;57.80
17307;DHT22;8771;48.048;7.682;2022-09-21T15:04:28;20.70;57.70
17307;DHT22;8771;48.048;7.682;2022-09-21T15:09:48;20.70;57.60
17307;DHT22;8771;48.048;7.682;2022-09-21T15:15:25;20.70;57.60
17307;DHT22;8771;48.048;7.682;2022-09-21T15:20:30;20.70;57.60
17307;DHT22;8771;48.048;7.682;2022-09-21T15:25:32;20.60;57.60
17307;DHT22;8771;48.048;7.682;2022-09-21T15:30:41;20.60;57.60
17307;DHT22;8771;48.048;7.682;2022-09-21T15:35:45;20.50;57.70
17307;DHT22;8771;48.048;7.682;2022-09-21T15:40:49;20.50;57.90
17307;DHT22;8771;48.048;7.682;2022-09-21T15:45:54;20.40;57.90
17307;DHT22;8771;48.048;7.682;2022-09-21T15:51:01;20.40;57.90
17307;DHT22;8771;48.048;7.682;2022-09-21T15:56:16;20.40;57.80
17307;DHT22;8771;48.048;7.682;2022-09-21T16:01:21;20.40;57.90
17307;DHT22;8771;48.048;7.682;2022-09-21T16:06:25;20.30;57.90
17307;DHT22;8771;48.048;7.682;2022-09-21T16:11:34;20.20;57.90
17307;DHT22;8771;48.048;7.682;2022-09-21T16:17:17;20.10;58.00
17307;DHT22;8771;48.048;7.682;2022-09-21T16:22:24;20.10;58.00
17307;DHT22;8771;48.048;7.682;2022-09-21T16:27:30;20.00;58.10
17307;DHT22;8771;48.048;7.682;2022-09-21T16:32:34;19.90;58.20
17307;DHT22;8771;48.048;7.682;2022-09-21T16:37:37;19.80;58.20
17307;DHT22;8771;48.048;7.682;2022-09-21T16:42:39;19.60;58.20
17307;DHT22;8771;48.048;7.682;2022-09-21T16:47:44;19.50;58.40
17307;DHT22;8771;48.048;7.682;2022-09-21T16:52:46;19.30;58.50
17307;DHT22;8771;48.048;7.682;2022-09-21T16:57:52;19.20;58.60
17307;DHT22;8771;48.048;7.682;2022-09-21T17:02:55;19.00;58.80
17307;DHT22;8771;48.048;7.682;2022-09-21T17:07:58;18.80;59.00
17307;DHT22;8771;48.048;7.682;2022-09-21T17:13:00;18.50;59.10
17307;DHT22;8771;48.048;7.682;2022-09-21T17:18:09;18.30;59.40
17307;DHT22;8771;48.048;7.682;2022-09-21T17:23:11;18.10;59.50
17307;DHT22;8771;48.048;7.682;2022-09-21T17:28:17;17.90;59.70
17307;DHT22;8771;48.048;7.682;2022-09-21T17:33:24;17.70;59.80
17307;DHT22;8771;48.048;7.682;2022-09-21T17:38:26;17.50;59.90
17307;DHT22;8771;48.048;7.682;2022-09-21T17:43:34;17.30;59.90
17307;DHT22;8771;48.048;7.682;2022-09-21T17:48:40;17.20;60.00
17307;DHT22;8771;48.048;7.682;2022-09-21T17:53:43;17.10;60.00
17307;DHT22;8771;48.048;7.682;2022-09-21T17:58:49;16.90;60.10
17307;DHT22;8771;48.048;7.682;2022-09-21T18:03:54;16.80;60.30
17307;DHT22;8771;48.048;7.682;2022-09-21T18:08:57;16.60;60.30
17307;DHT22;8771;48.048;7.682;2022-09-21T18:14:05;16.50;60.30
17307;DHT22;8771;48.048;7.682;2022-09-21T18:19:27;16.50;60.30
17307;DHT22;8771;48.048;7.682;2022-09-21T18:24:32;16.40;60.20
17307;DHT22;8771;48.048;7.682;2022-09-21T18:35:49;16.30;60.10
17307;DHT22;8771;48.048;7.682;2022-09-21T18:41:03;16.20;60.00
17307;DHT22;8771;48.048;7.682;2022-09-21T18:46:11;16.10;60.10
17307;DHT22;8771;48.048;7.682;2022-09-21T18:51:20;16.00;60.20
17307;DHT22;8771;48.048;7.682;2022-09-21T18:56:24;15.90;60.20
17307;DHT22;8771;48.048;7.682;2022-09-21T19:01:27;15.80;60.30
17307;DHT22;8771;48.048;7.682;2022-09-21T19:06:44;15.70;61.10
17307;DHT22;8771;48.048;7.682;2022-09-21T19:11:52;15.60;60.40
17307;DHT22;8771;48.048;7.682;2022-09-21T19:17:06;15.50;60.40
17307;DHT22;8771;48.048;7.682;2022-09-21T19:22:14;15.40;60.40
17307;DHT22;8771;48.048;7.682;2022-09-21T19:27:23;15.40;60.50
17307;DHT22;8771;48.048;7.682;2022-09-21T19:32:33;15.30;60.40
17307;DHT22;8771;48.048;7.682;2022-09-21T19:37:37;15.30;60.40
17307;DHT22;8771;48.048;7.682;2022-09-21T19:42:51;15.30;60.50
17307;DHT22;8771;48.048;7.682;2022-09-21T19:48:03;15.20;60.40
17307;DHT22;8771;48.048;7.682;2022-09-21T19:53:08;15.10;60.40
17307;DHT22;8771;48.048;7.682;2022-09-21T19:58:28;15.00;60.60
17307;DHT22;8771;48.048;7.682;2022-09-21T20:03:48;14.90;60.60
17307;DHT22;8771;48.048;7.682;2022-09-21T20:08:56;14.80;60.70
17307;DHT22;8771;48.048;7.682;2022-09-21T20:14:21;14.70;60.80
17307;DHT22;8771;48.048;7.682;2022-09-21T20:19:45;14.60;61.00
17307;DHT22;8771;48.048;7.682;2022-09-21T20:24:55;14.50;61.00
17307;DHT22;8771;48.048;7.682;2022-09-21T20:29:59;14.40;61.30
17307;DHT22;8771;48.048;7.682;2022-09-21T20:35:01;14.30;61.10
17307;DHT22;8771;48.048;7.682;2022-09-21T20:40:06;14.20;61.10
17307;DHT22;8771;48.048;7.682;2022-09-21T20:45:10;14.10;61.20
17307;DHT22;8771;48.048;7.682;2022-09-21T20:50:12;14.10;61.20
17307;DHT22;8771;48.048;7.682;2022-09-21T20:55:17;14.10;61.20
17307;DHT22;8771;48.048;7.682;2022-09-21T21:00:20;14.00;61.20
17307;DHT22;8771;48.048;7.682;2022-09-21T21:05:22;14.00;61.20
17307;DHT22;8771;48.048;7.682;2022-09-21T21:10:25;13.90;61.30
17307;DHT22;8771;48.048;7.682;2022-09-21T21:15:27;13.80;61.30
17307;DHT22;8771;48.048;7.682;2022-09-21T21:20:29;13.80;61.40
17307;DHT22;8771;48.048;7.682;2022-09-21T21:25:32;13.70;61.40
17307;DHT22;8771;48.048;7.682;2022-09-21T21:30:34;13.70;61.40
17307;DHT22;8771;48.048;7.682;2022-09-21T21:35:41;13.60;61.40
17307;DHT22;8771;48.048;7.682;2022-09-21T21:40:44;13.50;61.40
17307;DHT22;8771;48.048;7.682;2022-09-21T21:45:50;13.50;61.50
17307;DHT22;8771;48.048;7.682;2022-09-21T21:50:57;13.40;61.50
17307;DHT22;8771;48.048;7.682;2022-09-21T21:56:02;13.30;61.60
17307;DHT22;8771;48.048;7.682;2022-09-21T22:01:09;13.20;61.60
17307;DHT22;8771;48.048;7.682;2022-09-21T22:06:12;13.10;61.70
17307;DHT22;8771;48.048;7.682;2022-09-21T22:11:15;13.00;61.70
17307;DHT22;8771;48.048;7.682;2022-09-21T22:16:19;12.90;61.80
17307;DHT22;8771;48.048;7.682;2022-09-21T22:21:24;12.90;61.90
17307;DHT22;8771;48.048;7.682;2022-09-21T22:26:29;12.80;61.90
17307;DHT22;8771;48.048;7.682;2022-09-21T22:31:34;12.70;61.90
17307;DHT22;8771;48.048;7.682;2022-09-21T22:36:38;12.60;61.90
17307;DHT22;8771;48.048;7.682;2022-09-21T22:41:42;12.50;62.00
17307;DHT22;8771;48.048;7.682;2022-09-21T22:46:44;12.40;62.00
17307;DHT22;8771;48.048;7.682;2022-09-21T22:51:46;12.30;62.80
17307;DHT22;8771;48.048;7.682;2022-09-21T22:56:49;12.20;62.20
17307;DHT22;8771;48.048;7.682;2022-09-21T23:01:51;12.10;62.30
17307;DHT22;8771;48.048;7.682;2022-09-21T23:06:53;12.00;62.30
17307;DHT22;8771;48.048;7.682;2022-09-21T23:11:56;11.90;62.40
17307;DHT22;8771;48.048;7.682;2022-09-21T23:16:58;11.80;62.40
17307;DHT22;8771;48.048;7.682;2022-09-21T23:22:00;11.80;62.50
17307;DHT22;8771;48.048;7.682;2022-09-21T23:27:04;11.60;62.60
17307;DHT22;8771;48.048;7.682;2022-09-21T23:32:06;11.50;62.60
17307;DHT22;8771;48.048;7.682;2022-09-21T23:37:08;11.50;62.60
17307;DHT22;8771;48.048;7.682;2022-09-21T23:42:11;11.50;62.60
17307;DHT22;8771;48.048;7.682;2022-09-21T23:47:13;11.40;62.50
17307;DHT22;8771;48.048;7.682;2022-09-21T23:52:15;11.30;62.50
17307;DHT22;8771;48.048;7.682;2022-09-21T23:57:18;11.30;62.50
